Time;durP1;ratioP1;P1;durP2;ratioP2;P2;SDS_P1;SDS_P2;PMS_P1;PMS_P2;Temp;Humidity;BMP_temperature;BMP_pressure;BME280_temperature;BME280_humidity;BME280_pressure;Samples;Min_cycle;Max_cycle;Signal;HPM_P1;HPM_P2
2023/08/17 00:01:32;;;;;;;;;;;17.00;99.90;;;;;;5015883;28;20034;-43
2023/08/17 00:04:01;;;;;;;;;;;16.90;99.90;;;;;;4995616;28;20353;-43
2023/08/17 00:06:27;;;;;;;;;;;17.00;99.90;;;;;;5012913;28;20453;-44
2023/08/17 00:08:54;;;;;;;;;;;16.90;99.90;;;;;;5021372;28;19956;-43
2023/08/17 00:11:21;;;;;;;;;;;16.90;99.90;;;;;;5031392;28;19941;-43
2023/08/17 00:13:47;;;;;;;;;;;16.90;99.90;;;;;;5021588;28;20344;-43
2023/08/17 00:16:14;;;;;;;;;;;16.90;99.90;;;;;;5014384;28;19956;-43
2023/08/17 00:18:41;;;;;;;;;;;16.90;99.90;;;;;;5011421;28;19948;-44
2023/08/17 00:21:09;;;;;;;;;;;16.90;99.90;;;;;;5012630;28;19987;-43
2023/08/17 00:23:36;;;;;;;;;;;16.90;99.90;;;;;;4995239;28;19986;-43
2023/08/17 00:26:02;;;;;;;;;;;16.90;99.90;;;;;;5012789;28;19973;-44
2023/08/17 00:28:29;;;;;;;;;;;16.90;99.90;;;;;;5006054;28;19963;-44
2023/08/17 00:30:56;;;;;;;;;;;16.90;99.90;;;;;;5014810;28;19925;-44
2023/08/17 00:33:22;;;;;;;;;;;16.90;99.90;;;;;;5032054;28;19925;-43
2023/08/17 00:35:49;;;;;;;;;;;16.90;99.90;;;;;;5029232;28;20180;-43
2023/08/17 00:38:17;;;;;;;;;;;16.90;99.90;;;;;;5007811;28;20438;-44
2023/08/17 00:40:44;;;;;;;;;;;16.90;99.90;;;;;;5019011;28;19969;-43
2023/08/17 00:43:11;;;;;;;;;;;16.80;99.90;;;;;;5018458;28;19995;-44
2023/08/17 00:45:37;;;;;;;;;;;16.80;99.90;;;;;;5035421;28;20293;-44
2023/08/17 00:48:07;;;;;;;;;;;16.80;99.90;;;;;;5032864;28;20327;-43
2023/08/17 00:50:34;;;;;;;;;;;16.80;99.90;;;;;;4998947;28;19949;-43
2023/08/17 00:53:01;;;;;;;;;;;16.80;99.90;;;;;;5016219;28;20332;-43
2023/08/17 00:55:29;;;;;;;;;;;16.80;99.90;;;;;;5016062;28;19965;-44
2023/08/17 00:57:56;;;;;;;;;;;16.80;99.90;;;;;;5017433;28;19963;-43
2023/08/17 01:00:23;;;;;;;;;;;16.80;99.90;;;;;;5016727;28;19970;-44
2023/08/17 01:02:50;;;;;;;;;;;16.70;99.90;;;;;;5039490;28;19947;-43
2023/08/17 01:05:16;;;;;;;;;;;16.70;99.90;;;;;;5055720;28;19925;-43
2023/08/17 01:07:43;;;;;;;;;;;16.70;99.90;;;;;;5048862;28;20322;-43
2023/08/17 01:10:10;;;;;;;;;;;16.70;99.90;;;;;;5011369;28;20385;-44
2023/08/17 01:12:39;;;;;;;;;;;16.70;99.90;;;;;;5025195;28;19999;-43
2023/08/17 01:15:06;;;;;;;;;;;16.60;99.90;;;;;;5029171;28;19932;-43
2023/08/17 01:17:34;;;;;;;;;;;16.60;99.90;;;;;;5017683;28;19943;-43
2023/08/17 01:20:00;;;;;;;;;;;16.50;99.90;;;;;;5008754;28;19959;-43
2023/08/17 01:22:27;;;;;;;;;;;16.50;99.90;;;;;;5034729;28;19963;-44
2023/08/17 01:24:57;;;;;;;;;;;16.50;99.90;;;;;;5034293;28;20385;-43
2023/08/17 01:27:23;;;;;;;;;;;16.40;99.90;;;;;;5034374;28;20019;-43
2023/08/17 01:29:50;;;;;;;;;;;16.40;99.90;;;;;;5034841;28;19948;-43
2023/08/17 01:32:17;;;;;;;;;;;16.40;99.90;;;;;;5017851;28;19940;-43
2023/08/17 01:34:45;;;;;;;;;;;16.30;99.90;;;;;;5032173;28;19925;-44
2023/08/17 01:37:12;;;;;;;;;;;16.30;99.90;;;;;;5034376;28;19975;-43
2023/08/17 01:39:39;;;;;;;;;;;16.30;99.90;;;;;;5035111;28;19929;-43
2023/08/17 01:42:07;;;;;;;;;;;16.30;99.90;;;;;;5010521;28;19932;-44
2023/08/17 01:44:34;;;;;;;;;;;16.30;99.90;;;;;;5032190;28;20385;-43
2023/08/17 01:47:00;;;;;;;;;;;16.30;99.90;;;;;;5033922;28;20386;-43
2023/08/17 01:49:27;;;;;;;;;;;16.20;99.90;;;;;;5033351;28;20376;-44
2023/08/17 01:51:53;;;;;;;;;;;16.20;99.90;;;;;;5007822;28;19994;-44
2023/08/17 01:54:20;;;;;;;;;;;16.20;99.90;;;;;;5026951;28;20013;-44
2023/08/17 01:56:47;;;;;;;;;;;16.20;99.90;;;;;;5033548;28;20442;-43
2023/08/17 01:59:15;;;;;;;;;;;16.20;99.90;;;;;;5033796;28;19929;-43
2023/08/17 02:01:41;;;;;;;;;;;16.20;99.90;;;;;;5035008;28;19989;-43
2023/08/17 02:04:08;;;;;;;;;;;16.20;99.90;;;;;;5033457;28;19994;-43
2023/08/17 02:06:35;;;;;;;;;;;16.20;99.90;;;;;;5012672;28;19963;-43
2023/08/17 02:09:02;;;;;;;;;;;16.20;99.90;;;;;;5033243;28;19980;-43
2023/08/17 02:11:28;;;;;;;;;;;16.20;99.90;;;;;;5033858;28;19975;-44
2023/08/17 02:13:55;;;;;;;;;;;16.10;99.90;;;;;;5034206;28;20324;-43
2023/08/17 02:16:23;;;;;;;;;;;16.10;99.90;;;;;;5032420;28;20481;-43
2023/08/17 02:18:50;;;;;;;;;;;16.00;99.90;;;;;;5012548;28;20345;-44
2023/08/17 02:21:16;;;;;;;;;;;16.00;99.90;;;;;;4997161;28;19932;-44
2023/08/17 02:23:43;;;;;;;;;;;16.00;99.90;;;;;;4997229;28;20030;-44
2023/08/17 02:26:10;;;;;;;;;;;16.00;99.90;;;;;;5023311;28;20319;-43
2023/08/17 02:28:36;;;;;;;;;;;16.00;99.90;;;;;;5033322;28;19991;-44
2023/08/17 02:31:03;;;;;;;;;;;15.90;99.90;;;;;;5031665;28;20353;-44
2023/08/17 02:33:33;;;;;;;;;;;15.90;99.90;;;;;;5014238;28;19944;-44
2023/08/17 02:36:01;;;;;;;;;;;15.90;99.90;;;;;;5011868;28;19974;-43
2023/08/17 02:38:27;;;;;;;;;;;15.90;99.90;;;;;;5022837;28;20464;-43
2023/08/17 02:40:54;;;;;;;;;;;15.90;99.90;;;;;;5014309;28;19964;-43
2023/08/17 02:43:21;;;;;;;;;;;15.80;99.90;;;;;;5016785;28;19943;-44
2023/08/17 02:45:47;;;;;;;;;;;15.80;99.90;;;;;;5015173;28;19950;-44
2023/08/17 02:48:14;;;;;;;;;;;15.80;99.90;;;;;;5033150;28;19925;-43
2023/08/17 02:50:42;;;;;;;;;;;15.80;99.90;;;;;;5032986;28;19926;-44
2023/08/17 02:53:09;;;;;;;;;;;15.80;99.90;;;;;;5015627;28;19989;-43
2023/08/17 02:55:35;;;;;;;;;;;15.80;99.90;;;;;;4998834;28;20446;-43
2023/08/17 02:58:02;;;;;;;;;;;15.80;99.90;;;;;;5032568;28;19946;-43
2023/08/17 03:00:29;;;;;;;;;;;15.80;99.90;;;;;;5033605;28;19971;-43
2023/08/17 03:02:56;;;;;;;;;;;15.80;99.90;;;;;;5003636;28;19966;-43
2023/08/17 03:05:22;;;;;;;;;;;15.70;99.90;;;;;;5033402;28;19925;-44
2023/08/17 03:07:50;;;;;;;;;;;15.70;99.90;;;;;;5032624;28;20333;-42
2023/08/17 03:10:17;;;;;;;;;;;15.70;99.90;;;;;;5032530;28;20007;-43
2023/08/17 03:12:44;;;;;;;;;;;15.70;99.90;;;;;;5033019;28;19943;-44
2023/08/17 03:15:11;;;;;;;;;;;15.70;99.90;;;;;;5028641;28;19983;-43
2023/08/17 03:17:37;;;;;;;;;;;15.70;99.90;;;;;;5014922;28;19963;-43
2023/08/17 03:20:06;;;;;;;;;;;15.70;99.90;;;;;;5032852;28;20299;-44
2023/08/17 03:22:33;;;;;;;;;;;15.70;99.90;;;;;;5032516;28;20313;-43
2023/08/17 03:25:01;;;;;;;;;;;15.80;99.90;;;;;;5015662;28;20331;-43
2023/08/17 03:27:28;;;;;;;;;;;15.80;99.90;;;;;;4997517;28;19970;-43
2023/08/17 03:29:55;;;;;;;;;;;15.80;99.90;;;;;;5032886;28;19994;-44
2023/08/17 03:32:22;;;;;;;;;;;15.80;99.90;;;;;;5030726;28;19935;-44
2023/08/17 03:34:48;;;;;;;;;;;15.80;99.90;;;;;;5006146;28;19965;-43
2023/08/17 03:37:15;;;;;;;;;;;15.80;99.90;;;;;;5008557;28;19960;-43
2023/08/17 03:39:42;;;;;;;;;;;15.80;99.90;;;;;;5015355;28;19976;-43
2023/08/17 03:42:10;;;;;;;;;;;15.80;99.90;;;;;;5012918;28;19959;-43
2023/08/17 03:44:36;;;;;;;;;;;15.80;99.90;;;;;;5013187;28;20421;-43
2023/08/17 03:47:03;;;;;;;;;;;15.80;99.90;;;;;;5014591;28;19937;-44
2023/08/17 03:49:30;;;;;;;;;;;15.80;99.90;;;;;;5013149;28;20215;-43
2023/08/17 03:51:56;;;;;;;;;;;15.80;99.90;;;;;;5011935;28;20003;-44
2023/08/17 03:54:23;;;;;;;;;;;15.80;99.90;;;;;;5032418;28;19994;-44
2023/08/17 03:56:50;;;;;;;;;;;15.80;99.90;;;;;;5026600;28;19955;-43
2023/08/17 03:59:18;;;;;;;;;;;15.80;99.90;;;;;;5008993;28;19961;-43
2023/08/17 04:01:45;;;;;;;;;;;15.80;99.90;;;;;;5003206;28;19933;-42
2023/08/17 04:04:12;;;;;;;;;;;15.90;99.90;;;;;;5008300;28;20479;-44
2023/08/17 04:06:39;;;;;;;;;;;15.80;99.90;;;;;;5014621;28;20309;-43
2023/08/17 04:09:06;;;;;;;;;;;15.90;99.90;;;;;;5012202;28;19957;-43
2023/08/17 04:11:34;;;;;;;;;;;15.90;99.90;;;;;;5027424;28;19955;-43
2023/08/17 04:14:01;;;;;;;;;;;15.90;99.90;;;;;;5013826;28;19947;-43
2023/08/17 04:16:29;;;;;;;;;;;15.90;99.90;;;;;;5012748;28;19954;-43
2023/08/17 04:18:56;;;;;;;;;;;15.90;99.90;;;;;;5007738;28;19941;-43
2023/08/17 04:21:22;;;;;;;;;;;15.90;99.90;;;;;;5014425;28;19952;-44
2023/08/17 04:23:49;;;;;;;;;;;15.90;99.90;;;;;;5014828;28;19992;-44
2023/08/17 04:26:16;;;;;;;;;;;16.00;99.90;;;;;;5014181;28;19943;-43
2023/08/17 04:28:42;;;;;;;;;;;16.00;99.90;;;;;;5031870;28;19929;-44
2023/08/17 04:31:09;;;;;;;;;;;16.00;99.90;;;;;;5014444;28;19942;-43
2023/08/17 04:33:37;;;;;;;;;;;16.00;99.90;;;;;;5013225;28;20058;-44
2023/08/17 04:36:04;;;;;;;;;;;16.00;99.90;;;;;;5007427;28;20442;-44
2023/08/17 04:38:31;;;;;;;;;;;16.00;99.90;;;;;;5002231;28;19944;-43
2023/08/17 04:40:58;;;;;;;;;;;16.00;99.90;;;;;;5013622;28;19966;-43
2023/08/17 04:43:24;;;;;;;;;;;16.00;99.90;;;;;;5014827;28;19967;-43
2023/08/17 04:45:51;;;;;;;;;;;16.00;99.90;;;;;;5013697;28;19957;-43
2023/08/17 04:48:18;;;;;;;;;;;16.10;99.90;;;;;;5013388;28;20003;-44
2023/08/17 04:50:46;;;;;;;;;;;16.10;99.90;;;;;;5031162;28;19941;-44
2023/08/17 04:53:12;;;;;;;;;;;16.00;99.90;;;;;;5032065;28;19967;-43
2023/08/17 04:55:39;;;;;;;;;;;16.10;99.90;;;;;;5031855;28;19949;-43
2023/08/17 04:58:06;;;;;;;;;;;16.10;99.90;;;;;;5029941;28;19955;-44
2023/08/17 05:00:33;;;;;;;;;;;16.10;99.90;;;;;;5014653;28;19936;-43
2023/08/17 05:03:00;;;;;;;;;;;16.10;99.90;;;;;;5011858;28;20389;-43
2023/08/17 05:05:26;;;;;;;;;;;16.10;99.90;;;;;;4994626;28;20447;-44
2023/08/17 05:07:54;;;;;;;;;;;16.20;99.90;;;;;;5015878;28;19965;-45
2023/08/17 05:10:21;;;;;;;;;;;16.10;99.90;;;;;;5030559;28;19937;-44
2023/08/17 05:12:48;;;;;;;;;;;16.20;99.90;;;;;;5014030;28;20360;-43
2023/08/17 05:15:14;;;;;;;;;;;16.20;99.90;;;;;;5037642;28;19943;-44
2023/08/17 05:17:40;;;;;;;;;;;16.20;99.90;;;;;;5048341;28;19941;-43
2023/08/17 05:20:08;;;;;;;;;;;16.20;99.90;;;;;;5021374;28;20367;-42
2023/08/17 05:22:34;;;;;;;;;;;16.20;99.90;;;;;;5014829;28;20036;-44
2023/08/17 05:25:02;;;;;;;;;;;16.30;99.90;;;;;;5033154;28;20312;-44
2023/08/17 05:27:29;;;;;;;;;;;16.30;99.90;;;;;;5015848;28;21163;-44
2023/08/17 05:29:56;;;;;;;;;;;16.30;99.90;;;;;;5017886;28;19948;-44
2023/08/17 05:32:23;;;;;;;;;;;16.30;99.90;;;;;;5032942;28;20405;-45
2023/08/17 05:34:49;;;;;;;;;;;16.30;99.90;;;;;;5020692;28;19941;-44
2023/08/17 05:37:16;;;;;;;;;;;16.40;99.90;;;;;;5027643;28;20340;-44
2023/08/17 05:39:43;;;;;;;;;;;16.40;99.90;;;;;;5034406;28;19959;-43
2023/08/17 05:42:11;;;;;;;;;;;16.40;99.90;;;;;;5034666;28;19943;-43
2023/08/17 05:44:38;;;;;;;;;;;16.40;99.90;;;;;;5034616;28;20392;-43
2023/08/17 05:47:04;;;;;;;;;;;16.40;99.90;;;;;;5033822;28;20392;-42
2023/08/17 05:49:31;;;;;;;;;;;16.40;99.90;;;;;;5016627;28;19986;-42
2023/08/17 05:51:58;;;;;;;;;;;16.40;99.90;;;;;;5014745;28;19943;-42
2023/08/17 05:54:24;;;;;;;;;;;16.40;99.90;;;;;;4997245;28;19925;-42
2023/08/17 05:56:51;;;;;;;;;;;16.50;99.90;;;;;;5017513;28;19997;-42
2023/08/17 05:59:19;;;;;;;;;;;16.50;99.90;;;;;;5027556;28;19932;-42
2023/08/17 06:01:46;;;;;;;;;;;16.50;99.90;;;;;;5029382;28;19970;-42
2023/08/17 06:04:13;;;;;;;;;;;16.50;99.90;;;;;;5030904;28;19987;-42
2023/08/17 06:06:39;;;;;;;;;;;16.60;99.90;;;;;;5032315;28;19936;-42
2023/08/17 06:09:07;;;;;;;;;;;16.60;99.90;;;;;;5009848;28;19986;-44
2023/08/17 06:11:34;;;;;;;;;;;16.60;99.90;;;;;;5017435;28;19950;-44
2023/08/17 06:14:01;;;;;;;;;;;16.60;99.90;;;;;;4995948;28;20446;-43
2023/08/17 06:16:29;;;;;;;;;;;16.60;99.90;;;;;;5013470;28;20369;-44
2023/08/17 06:18:55;;;;;;;;;;;16.60;99.90;;;;;;5013104;28;19933;-43
2023/08/17 06:21:22;;;;;;;;;;;16.60;99.90;;;;;;5025878;28;19940;-44
2023/08/17 06:23:49;;;;;;;;;;;16.50;99.90;;;;;;5032894;28;19963;-43
2023/08/17 06:26:15;;;;;;;;;;;16.60;99.90;;;;;;5033056;28;20004;-44
2023/08/17 06:28:42;;;;;;;;;;;16.70;99.90;;;;;;5030564;28;19948;-43
2023/08/17 06:31:09;;;;;;;;;;;16.70;99.90;;;;;;5014199;28;20367;-44
2023/08/17 06:33:37;;;;;;;;;;;16.70;99.90;;;;;;5032387;28;19942;-43
2023/08/17 06:36:04;;;;;;;;;;;16.70;99.90;;;;;;5032527;28;19936;-43
2023/08/17 06:38:30;;;;;;;;;;;16.70;99.90;;;;;;5010886;28;20435;-43
2023/08/17 06:40:57;;;;;;;;;;;16.80;99.90;;;;;;5031779;28;20044;-43
2023/08/17 06:43:24;;;;;;;;;;;16.80;99.90;;;;;;5015187;28;20288;-43
2023/08/17 06:45:50;;;;;;;;;;;16.90;99.90;;;;;;5014941;28;20018;-44
2023/08/17 06:48:17;;;;;;;;;;;16.90;99.90;;;;;;5014076;28;20439;-44
2023/08/17 06:50:45;;;;;;;;;;;16.90;99.90;;;;;;5026094;28;20028;-44
2023/08/17 06:53:12;;;;;;;;;;;17.00;99.90;;;;;;5013758;28;19981;-44
2023/08/17 06:55:39;;;;;;;;;;;17.10;99.90;;;;;;5032486;28;19940;-44
2023/08/17 06:58:05;;;;;;;;;;;17.10;99.90;;;;;;5030477;28;19926;-44
2023/08/17 07:00:32;;;;;;;;;;;17.20;99.90;;;;;;5005964;28;19970;-45
2023/08/17 07:02:59;;;;;;;;;;;17.30;99.90;;;;;;5014978;28;19925;-44
2023/08/17 07:05:25;;;;;;;;;;;17.30;99.90;;;;;;5032086;28;20344;-44
2023/08/17 07:07:55;;;;;;;;;;;17.40;99.90;;;;;;5006317;28;20396;-44
2023/08/17 07:10:21;;;;;;;;;;;17.30;99.90;;;;;;5026663;28;20405;-44
2023/08/17 07:12:48;;;;;;;;;;;17.40;99.90;;;;;;5022110;28;19948;-44
2023/08/17 07:15:15;;;;;;;;;;;17.40;99.90;;;;;;5031275;28;19932;-44
2023/08/17 07:17:42;;;;;;;;;;;17.40;99.90;;;;;;5031369;28;19925;-44
2023/08/17 07:20:09;;;;;;;;;;;17.50;99.90;;;;;;5031336;28;19940;-44
2023/08/17 07:22:36;;;;;;;;;;;17.50;99.90;;;;;;5030635;28;20036;-43
2023/08/17 07:25:04;;;;;;;;;;;17.50;99.90;;;;;;5023089;28;19948;-44
2023/08/17 07:27:31;;;;;;;;;;;17.60;99.90;;;;;;5031273;28;20433;-44
2023/08/17 07:29:58;;;;;;;;;;;17.60;99.90;;;;;;5031894;28;19940;-44
2023/08/17 07:32:25;;;;;;;;;;;17.70;99.90;;;;;;5013190;28;20312;-42
2023/08/17 07:34:52;;;;;;;;;;;17.80;99.90;;;;;;5031387;28;19949;-43
2023/08/17 07:37:19;;;;;;;;;;;17.90;99.90;;;;;;5030372;28;19948;-44
2023/08/17 07:39:46;;;;;;;;;;;18.00;99.90;;;;;;5030517;28;19925;-44
2023/08/17 07:42:14;;;;;;;;;;;18.00;99.90;;;;;;5028820;28;19932;-44
2023/08/17 07:44:41;;;;;;;;;;;18.10;99.90;;;;;;5013297;28;20427;-44
2023/08/17 07:47:08;;;;;;;;;;;18.10;99.90;;;;;;5030644;28;20373;-44
2023/08/17 07:49:35;;;;;;;;;;;18.10;99.90;;;;;;5030211;28;19956;-43
2023/08/17 07:52:01;;;;;;;;;;;18.20;99.90;;;;;;5019358;28;19959;-44
2023/08/17 07:54:28;;;;;;;;;;;18.20;99.90;;;;;;5013350;28;19935;-44
2023/08/17 07:56:55;;;;;;;;;;;18.20;99.90;;;;;;5030924;28;19925;-44
2023/08/17 07:59:23;;;;;;;;;;;18.20;99.90;;;;;;5034949;28;19924;-44
2023/08/17 08:01:50;;;;;;;;;;;18.30;99.90;;;;;;5028703;28;20274;-44
2023/08/17 08:04:16;;;;;;;;;;;18.30;99.90;;;;;;5013527;28;19959;-44
2023/08/17 08:06:43;;;;;;;;;;;18.40;99.90;;;;;;5012417;28;19926;-44
2023/08/17 08:09:10;;;;;;;;;;;18.50;99.90;;;;;;5011214;28;19929;-44
2023/08/17 08:11:36;;;;;;;;;;;18.50;99.90;;;;;;5030987;28;19925;-45
2023/08/17 08:14:03;;;;;;;;;;;18.60;99.90;;;;;;5028572;28;19961;-44
2023/08/17 08:16:31;;;;;;;;;;;18.70;99.90;;;;;;5006525;28;19957;-43
2023/08/17 08:18:58;;;;;;;;;;;18.80;99.90;;;;;;5002796;28;19933;-44
2023/08/17 08:21:26;;;;;;;;;;;18.80;99.90;;;;;;5013374;28;19973;-44
2023/08/17 08:23:53;;;;;;;;;;;18.90;99.90;;;;;;5027256;28;19966;-44
2023/08/17 08:26:19;;;;;;;;;;;19.10;99.90;;;;;;5030881;28;19963;-44
2023/08/17 08:28:46;;;;;;;;;;;19.20;99.90;;;;;;5021600;28;19947;-44
2023/08/17 08:31:13;;;;;;;;;;;19.50;99.90;;;;;;5018760;28;20440;-44
2023/08/17 08:33:41;;;;;;;;;;;19.70;99.90;;;;;;5024834;28;19929;-44
2023/08/17 08:36:07;;;;;;;;;;;19.80;99.90;;;;;;5012773;28;19951;-44
2023/08/17 08:38:34;;;;;;;;;;;19.90;99.90;;;;;;5030699;28;20486;-44
2023/08/17 08:41:01;;;;;;;;;;;20.00;99.90;;;;;;5013512;28;20105;-43
2023/08/17 08:43:28;;;;;;;;;;;20.10;99.90;;;;;;5030792;28;19967;-43
2023/08/17 08:45:55;;;;;;;;;;;20.10;99.90;;;;;;5001197;28;20429;-43
2023/08/17 08:48:22;;;;;;;;;;;20.20;99.90;;;;;;5011313;28;20070;-44
2023/08/17 08:50:52;;;;;;;;;;;20.20;99.90;;;;;;5011264;28;19968;-43
2023/08/17 08:53:19;;;;;;;;;;;20.20;99.90;;;;;;5026253;28;19983;-43
2023/08/17 08:55:46;;;;;;;;;;;20.20;99.90;;;;;;5014244;28;19963;-44
2023/08/17 08:58:13;;;;;;;;;;;20.10;99.90;;;;;;5021014;28;19925;-43
2023/08/17 09:00:39;;;;;;;;;;;19.90;99.90;;;;;;4997172;28;19925;-44
2023/08/17 09:03:06;;;;;;;;;;;19.90;99.90;;;;;;5014930;28;20347;-44
2023/08/17 09:05:34;;;;;;;;;;;20.00;99.90;;;;;;5024393;28;19966;-43
2023/08/17 09:08:02;;;;;;;;;;;20.00;99.90;;;;;;5017369;28;19946;-44
2023/08/17 09:10:29;;;;;;;;;;;20.00;99.90;;;;;;5023416;28;20171;-43
2023/08/17 09:12:55;;;;;;;;;;;20.00;99.90;;;;;;4999387;28;19933;-43
2023/08/17 09:15:22;;;;;;;;;;;20.10;99.90;;;;;;5025038;28;20034;-43
2023/08/17 09:17:49;;;;;;;;;;;20.10;99.90;;;;;;5034247;28;19966;-43
2023/08/17 09:20:31;;;;;;;;;;;20.00;99.90;;;;;;5021103;28;19951;-43
2023/08/17 09:22:58;;;;;;;;;;;20.00;99.90;;;;;;5014310;28;19940;-43
2023/08/17 09:25:26;;;;;;;;;;;19.90;99.90;;;;;;5033295;28;19944;-43
2023/08/17 09:27:52;;;;;;;;;;;19.90;99.90;;;;;;5031755;28;20360;-44
2023/08/17 09:30:19;;;;;;;;;;;19.90;99.90;;;;;;5016223;28;19925;-44
2023/08/17 09:32:47;;;;;;;;;;;20.00;99.90;;;;;;5028883;28;20016;-44
2023/08/17 09:35:14;;;;;;;;;;;20.10;99.90;;;;;;5019110;28;20440;-44
2023/08/17 09:37:40;;;;;;;;;;;20.10;99.90;;;;;;5014598;28;19963;-44
2023/08/17 09:40:08;;;;;;;;;;;20.10;99.90;;;;;;5021092;28;19936;-43
2023/08/17 09:42:36;;;;;;;;;;;20.10;99.90;;;;;;5006309;28;20407;-43
2023/08/17 09:45:03;;;;;;;;;;;20.10;99.90;;;;;;5021054;28;19960;-44
2023/08/17 09:47:30;;;;;;;;;;;20.10;99.90;;;;;;4996404;28;19975;-44
2023/08/17 09:49:57;;;;;;;;;;;20.20;99.90;;;;;;5014352;28;20392;-44
2023/08/17 09:52:24;;;;;;;;;;;20.20;99.90;;;;;;5005141;28;19929;-43
2023/08/17 09:54:51;;;;;;;;;;;20.20;99.90;;;;;;5010145;28;19936;-44
2023/08/17 09:57:18;;;;;;;;;;;20.20;99.90;;;;;;5027242;28;19933;-44
2023/08/17 09:59:46;;;;;;;;;;;20.20;99.90;;;;;;5010909;28;20011;-43
2023/08/17 10:02:15;;;;;;;;;;;20.10;99.90;;;;;;5014008;28;19960;-43
2023/08/17 10:04:42;;;;;;;;;;;20.10;99.90;;;;;;5015346;28;20116;-43
2023/08/17 10:07:09;;;;;;;;;;;20.20;99.90;;;;;;5032885;28;20435;-44
2023/08/17 10:09:37;;;;;;;;;;;20.30;99.90;;;;;;5033279;28;20361;-44
2023/08/17 10:12:10;;;;;;;;;;;20.30;99.90;;;;;;5033277;28;19986;-43
2023/08/17 10:14:38;;;;;;;;;;;20.40;99.90;;;;;;5021756;28;20038;-43
2023/08/17 10:17:10;;;;;;;;;;;20.50;99.90;;;;;;5013633;28;19991;-43
2023/08/17 10:19:40;;;;;;;;;;;20.70;99.90;;;;;;5013315;28;19959;-44
2023/08/17 10:22:09;;;;;;;;;;;20.70;99.90;;;;;;5031014;28;19956;-43
2023/08/17 10:24:37;;;;;;;;;;;20.80;99.90;;;;;;5030920;28;19935;-43
2023/08/17 10:27:04;;;;;;;;;;;20.90;99.90;;;;;;5002339;28;20613;-44
2023/08/17 10:29:31;;;;;;;;;;;20.90;99.90;;;;;;5030731;28;19925;-44
2023/08/17 10:31:58;;;;;;;;;;;20.90;99.90;;;;;;5031999;28;19926;-43
2023/08/17 10:34:26;;;;;;;;;;;20.90;99.90;;;;;;5027659;28;19933;-43
2023/08/17 10:36:52;;;;;;;;;;;20.90;99.90;;;;;;5022152;28;20422;-43
2023/08/17 10:39:19;;;;;;;;;;;20.90;99.90;;;;;;5012845;28;20015;-43
2023/08/17 10:41:47;;;;;;;;;;;20.80;99.90;;;;;;5017778;28;21513;-43
2023/08/17 10:44:13;;;;;;;;;;;20.80;99.90;;;;;;5030494;28;19925;-43
2023/08/17 10:46:42;;;;;;;;;;;20.80;99.90;;;;;;5003968;28;19937;-44
2023/08/17 10:49:24;;;;;;;;;;;20.90;99.90;;;;;;5027368;28;19959;-44
2023/08/17 10:52:01;;;;;;;;;;;21.00;99.90;;;;;;5028868;28;19929;-44
2023/08/17 10:54:36;;;;;;;;;;;21.00;99.90;;;;;;5003882;28;20053;-43
2023/08/17 10:57:18;;;;;;;;;;;21.10;99.90;;;;;;5020804;28;19925;-43
2023/08/17 10:59:44;;;;;;;;;;;21.20;99.90;;;;;;5030008;28;20352;-43
2023/08/17 11:02:11;;;;;;;;;;;21.20;99.90;;;;;;5032031;28;19929;-43
2023/08/17 11:04:38;;;;;;;;;;;21.20;99.90;;;;;;5014709;28;20369;-44
2023/08/17 11:07:06;;;;;;;;;;;21.10;99.90;;;;;;5016934;28;19951;-43
2023/08/17 11:09:32;;;;;;;;;;;21.10;99.90;;;;;;4992884;28;20018;-44
2023/08/17 11:12:01;;;;;;;;;;;21.10;99.90;;;;;;4994884;28;20186;-42
2023/08/17 11:14:33;;;;;;;;;;;21.10;99.90;;;;;;5012437;28;19940;-43
2023/08/17 11:16:59;;;;;;;;;;;21.00;99.90;;;;;;5012469;28;20358;-42
2023/08/17 11:19:26;;;;;;;;;;;21.10;99.90;;;;;;5028073;28;20365;-43
2023/08/17 11:21:53;;;;;;;;;;;21.20;99.90;;;;;;5031443;28;20354;-43
2023/08/17 11:24:21;;;;;;;;;;;21.20;99.90;;;;;;5010051;28;19932;-43
2023/08/17 11:26:48;;;;;;;;;;;21.20;99.90;;;;;;5015810;28;19932;-44
2023/08/17 11:29:15;;;;;;;;;;;21.20;99.90;;;;;;5006643;28;20448;-43
2023/08/17 11:31:42;;;;;;;;;;;21.10;99.90;;;;;;5010029;28;20343;-42
2023/08/17 11:34:09;;;;;;;;;;;21.10;99.90;;;;;;5024244;28;20439;-44
2023/08/17 11:36:36;;;;;;;;;;;21.10;99.90;;;;;;5029107;28;19972;-43
2023/08/17 11:39:02;;;;;;;;;;;21.10;99.90;;;;;;5031629;28;19964;-44
2023/08/17 11:41:30;;;;;;;;;;;21.10;99.90;;;;;;5013871;28;19925;-44
2023/08/17 11:43:58;;;;;;;;;;;21.10;99.90;;;;;;5015432;28;20442;-43
2023/08/17 11:46:25;;;;;;;;;;;21.10;99.90;;;;;;5014327;28;20471;-44
2023/08/17 11:48:53;;;;;;;;;;;21.10;99.90;;;;;;5022878;28;20363;-43
2023/08/17 11:51:20;;;;;;;;;;;21.20;99.90;;;;;;5011390;28;19972;-43
2023/08/17 11:53:47;;;;;;;;;;;21.20;99.90;;;;;;5005793;28;20299;-43
2023/08/17 11:56:14;;;;;;;;;;;21.40;99.90;;;;;;5032680;28;19971;-44
2023/08/17 11:58:43;;;;;;;;;;;21.50;99.90;;;;;;5030207;28;19931;-44
2023/08/17 12:01:10;;;;;;;;;;;21.60;99.90;;;;;;5027961;28;19960;-44
2023/08/17 12:03:36;;;;;;;;;;;21.50;99.90;;;;;;5028047;28;19925;-44
2023/08/17 12:06:03;;;;;;;;;;;21.60;99.90;;;;;;5003837;28;20512;-44
2023/08/17 12:08:30;;;;;;;;;;;21.60;99.90;;;;;;5034991;28;19926;-43
2023/08/17 12:10:57;;;;;;;;;;;21.70;99.90;;;;;;5025767;28;19940;-44
2023/08/17 12:13:30;;;;;;;;;;;21.80;99.90;;;;;;5015294;28;19926;-44
2023/08/17 12:15:58;;;;;;;;;;;21.90;99.90;;;;;;5013220;28;19926;-44
2023/08/17 12:18:25;;;;;;;;;;;21.90;99.90;;;;;;5000764;28;20020;-44
2023/08/17 12:20:53;;;;;;;;;;;21.80;99.90;;;;;;5006001;28;19932;-43
2023/08/17 12:23:19;;;;;;;;;;;21.80;99.90;;;;;;5013701;28;19938;-44
2023/08/17 12:25:46;;;;;;;;;;;21.80;99.90;;;;;;5012488;28;20333;-44
2023/08/17 12:28:13;;;;;;;;;;;21.90;99.90;;;;;;5012673;28;19964;-44
2023/08/17 12:30:40;;;;;;;;;;;21.80;99.90;;;;;;5006756;28;19942;-44
2023/08/17 12:33:08;;;;;;;;;;;21.80;99.90;;;;;;5029201;28;19925;-43
2023/08/17 12:35:34;;;;;;;;;;;21.90;99.90;;;;;;5017483;28;19929;-43
2023/08/17 12:38:01;;;;;;;;;;;22.00;99.90;;;;;;5035515;28;20013;-43
2023/08/17 12:40:28;;;;;;;;;;;22.00;99.90;;;;;;5018152;28;20385;-44
2023/08/17 12:42:54;;;;;;;;;;;22.00;99.90;;;;;;5023295;28;19959;-43
2023/08/17 12:45:21;;;;;;;;;;;22.00;99.90;;;;;;5004604;28;19963;-44
2023/08/17 12:47:48;;;;;;;;;;;22.10;99.90;;;;;;5027023;28;19933;-43
2023/08/17 12:50:17;;;;;;;;;;;22.10;99.90;;;;;;5030512;28;19925;-44
2023/08/17 12:52:43;;;;;;;;;;;22.20;99.90;;;;;;5034060;28;20408;-43
2023/08/17 12:55:10;;;;;;;;;;;22.20;99.90;;;;;;5020390;28;19925;-44
2023/08/17 12:57:37;;;;;;;;;;;22.20;99.90;;;;;;5003282;28;19925;-44
2023/08/17 13:00:04;;;;;;;;;;;22.20;99.90;;;;;;5023680;28;19944;-43
2023/08/17 13:02:30;;;;;;;;;;;22.20;99.90;;;;;;5017153;28;19929;-44
2023/08/17 13:04:57;;;;;;;;;;;22.30;99.90;;;;;;5033989;28;19959;-44
2023/08/17 13:07:25;;;;;;;;;;;22.40;99.90;;;;;;5017039;28;19943;-43
2023/08/17 13:09:52;;;;;;;;;;;22.40;99.90;;;;;;5016173;28;20403;-44
2023/08/17 13:12:18;;;;;;;;;;;22.40;99.90;;;;;;5035214;28;20053;-44
2023/08/17 13:14:45;;;;;;;;;;;22.50;99.90;;;;;;5026977;28;19948;-44
2023/08/17 13:17:14;;;;;;;;;;;22.50;99.90;;;;;;5035505;28;19932;-44
2023/08/17 13:19:41;;;;;;;;;;;22.50;99.90;;;;;;5015790;28;20416;-43
2023/08/17 13:22:07;;;;;;;;;;;22.60;99.90;;;;;;5035444;28;20443;-44
2023/08/17 13:24:35;;;;;;;;;;;22.60;99.90;;;;;;5032968;28;19933;-43
2023/08/17 13:27:02;;;;;;;;;;;22.60;99.90;;;;;;5031360;28;19929;-44
2023/08/17 13:29:29;;;;;;;;;;;22.60;99.90;;;;;;5024928;28;19962;-44
2023/08/17 13:31:55;;;;;;;;;;;22.70;99.90;;;;;;5017181;28;19940;-44
2023/08/17 13:34:22;;;;;;;;;;;22.70;99.90;;;;;;5033877;28;19962;-43
2023/08/17 13:36:49;;;;;;;;;;;22.80;99.90;;;;;;5034628;28;19944;-43
2023/08/17 13:39:16;;;;;;;;;;;22.70;99.90;;;;;;5033444;28;20494;-43
2023/08/17 13:41:44;;;;;;;;;;;22.70;99.90;;;;;;5027007;28;19930;-43
2023/08/17 13:44:10;;;;;;;;;;;22.50;99.90;;;;;;5013793;28;19932;-44
2023/08/17 13:46:37;;;;;;;;;;;22.40;99.90;;;;;;5000388;28;19948;-43
2023/08/17 13:49:04;;;;;;;;;;;22.40;99.90;;;;;;5020455;28;20018;-44
2023/08/17 13:51:31;;;;;;;;;;;22.50;99.90;;;;;;5018479;28;19940;-44
2023/08/17 13:53:57;;;;;;;;;;;22.40;99.90;;;;;;5015085;28;19963;-44
2023/08/17 13:56:24;;;;;;;;;;;22.50;99.90;;;;;;5015505;28;19960;-44
2023/08/17 13:58:52;;;;;;;;;;;22.40;99.90;;;;;;5021218;28;20344;-44
2023/08/17 14:01:19;;;;;;;;;;;22.30;99.90;;;;;;5020902;28;20411;-43
2023/08/17 14:03:46;;;;;;;;;;;22.20;99.90;;;;;;5014591;28;19950;-44
2023/08/17 14:06:13;;;;;;;;;;;22.10;99.90;;;;;;5021853;28;20029;-44
2023/08/17 14:08:39;;;;;;;;;;;22.00;99.90;;;;;;5016279;28;19932;-43
2023/08/17 14:11:06;;;;;;;;;;;22.00;99.90;;;;;;5017096;28;19974;-43
2023/08/17 14:13:34;;;;;;;;;;;21.90;99.90;;;;;;5034312;28;19929;-44
2023/08/17 14:16:02;;;;;;;;;;;21.90;99.90;;;;;;5032982;28;19975;-43